createdAt,value
2022-08-30T00:00:37.936Z,102288.44
2022-08-30T00:03:09.833Z,102291.09
2022-08-30T00:05:39.722Z,102299.94
2022-08-30T00:08:08.608Z,102298.19
2022-08-30T00:10:38.889Z,102299.94
2022-08-30T00:13:08.123Z,102302.59
2022-08-30T00:15:36.565Z,102299.94
2022-08-30T00:18:05.259Z,102302.59
2022-08-30T00:20:35.499Z,102307.03
2022-08-30T00:23:04.730Z,102304.38
2022-08-30T00:25:33.993Z,102307.91
2022-08-30T00:28:02.670Z,102302.63
2022-08-30T00:30:31.324Z,102308.81
2022-08-30T00:33:01.433Z,102307.03
2022-08-30T00:35:30.100Z,102309.69
2022-08-30T00:37:58.469Z,102301.69
2022-08-30T00:40:28.095Z,102310.56
2022-08-30T00:42:59.859Z,102315.00
2022-08-30T00:45:34.727Z,102308.81
2022-08-30T00:48:04.603Z,102312.31
2022-08-30T00:50:37.899Z,102320.31
2022-08-30T00:53:11.350Z,102306.97
2022-08-30T00:55:44.242Z,102310.50
2022-08-30T00:58:20.158Z,102311.41
2022-08-30T01:00:55.143Z,102312.28
2022-08-30T01:03:24.435Z,102314.91
2022-08-30T01:05:53.519Z,102315.78
2022-08-30T01:08:24.350Z,102322.88
2022-08-30T01:10:54.912Z,102312.22
2022-08-30T01:13:27.097Z,102311.31
2022-08-30T01:15:56.062Z,102311.28
2022-08-30T01:18:25.549Z,102305.97
2022-08-30T01:21:03.692Z,102312.13
2022-08-30T01:23:34.877Z,102309.44
2022-08-30T01:26:06.077Z,102312.09
2022-08-30T01:28:35.468Z,102314.72
2022-08-30T01:31:03.979Z,102313.81
2022-08-30T01:33:32.311Z,102318.25
2022-08-30T01:36:05.133Z,102318.22
2022-08-30T01:38:40.194Z,102312.91
2022-08-30T01:41:13.028Z,102320.00
2022-08-30T01:43:41.824Z,102320.88
2022-08-30T01:46:15.351Z,102314.66
2022-08-30T01:48:50.261Z,102323.53
2022-08-30T01:51:25.246Z,102323.50
2022-08-30T01:53:54.313Z,102317.31
2022-08-30T01:56:24.616Z,102319.97
2022-08-30T01:58:53.936Z,102319.97
2022-08-30T02:01:25.883Z,102334.16
2022-08-30T02:03:56.723Z,102335.03
2022-08-30T02:06:25.230Z,102334.16
2022-08-30T02:08:53.631Z,102331.50
2022-08-30T02:11:22.555Z,102328.84
2022-08-30T02:13:51.510Z,102327.91
2022-08-30T02:16:23.784Z,102324.38
2022-08-30T02:18:54.440Z,102342.09
2022-08-30T02:21:23.691Z,102341.19
2022-08-30T02:23:52.670Z,102343.81
2022-08-30T02:26:21.801Z,102336.72
2022-08-30T02:28:51.231Z,102341.16
2022-08-30T02:31:21.515Z,102338.50
2022-08-30T02:33:52.045Z,102335.81
2022-08-30T02:36:21.567Z,102337.56
2022-08-30T02:38:52.067Z,102344.66
2022-08-30T02:41:21.471Z,102337.53
2022-08-30T02:43:51.044Z,102341.97
2022-08-30T02:46:19.432Z,102334.91
2022-08-30T02:48:47.900Z,102336.69
2022-08-30T02:51:16.450Z,102345.56
2022-08-30T02:53:45.775Z,102335.84
2022-08-30T02:56:14.804Z,102342.91
2022-08-30T02:58:44.555Z,102344.72
2022-08-30T03:01:15.482Z,102337.66
2022-08-30T03:03:46.962Z,102338.56
2022-08-30T03:06:15.615Z,102336.75
2022-08-30T03:08:44.700Z,102341.19
2022-08-30T03:11:13.858Z,102348.28
2022-08-30T03:13:42.511Z,102333.19
2022-08-30T03:16:11.358Z,102342.91
2022-08-30T03:18:40.052Z,102338.50
2022-08-30T03:21:16.551Z,102343.78
2022-08-30T03:23:45.061Z,102350.00
2022-08-30T03:26:15.020Z,102345.53
2022-08-30T03:28:44.846Z,102350.84
2022-08-30T03:31:13.370Z,102341.09
2022-08-30T03:33:41.993Z,102343.75
2022-08-30T03:36:11.813Z,102343.72
2022-08-30T03:38:40.198Z,102335.75
2022-08-30T03:41:09.166Z,102332.19
2022-08-30T03:43:37.871Z,102327.75
2022-08-30T03:46:06.485Z,102329.53
2022-08-30T03:48:34.862Z,102339.25
2022-08-30T03:51:03.541Z,102341.88
2022-08-30T03:53:34.969Z,102342.75
2022-08-30T03:56:04.198Z,102342.72
2022-08-30T03:58:33.157Z,102343.56
2022-08-30T04:01:04.692Z,102347.09
2022-08-30T04:03:33.852Z,102348.88
2022-08-30T04:06:02.263Z,102343.56
2022-08-30T04:08:30.850Z,102355.97
2022-08-30T04:11:01.138Z,102348.00
2022-08-30T04:13:30.045Z,102355.03
2022-08-30T04:16:00.483Z,102359.47
2022-08-30T04:18:29.001Z,102354.13
2022-08-30T04:20:57.313Z,102353.25
2022-08-30T04:23:25.719Z,102350.59
2022-08-30T04:25:54.677Z,102349.69
2022-08-30T04:28:23.345Z,102347.91
2022-08-30T04:30:51.771Z,102354.13
2022-08-30T04:33:20.348Z,102347.94
2022-08-30T04:35:49.914Z,102348.78
2022-08-30T04:38:18.403Z,102350.53
2022-08-30T04:40:50.700Z,102363.78
2022-08-30T04:43:19.034Z,102366.44
2022-08-30T04:45:48.263Z,102369.06
2022-08-30T04:48:17.894Z,102372.56
2022-08-30T04:50:46.927Z,102374.31
2022-08-30T04:53:16.168Z,102373.41
2022-08-30T04:55:44.694Z,102368.97
2022-08-30T04:58:13.306Z,102375.16
2022-08-30T05:00:44.085Z,102368.03
2022-08-30T05:03:14.057Z,102371.53
2022-08-30T05:05:48.387Z,102375.88
2022-08-30T05:08:23.311Z,102379.38
2022-08-30T05:10:53.422Z,102388.25
2022-08-30T05:13:34.971Z,102382.03
2022-08-30T05:16:06.602Z,102384.66
2022-08-30T05:18:36.725Z,102388.25
2022-08-30T05:21:09.758Z,102390.91
2022-08-30T05:23:39.955Z,102387.41
2022-08-30T05:26:17.573Z,102390.94
2022-08-30T05:28:46.366Z,102396.25
2022-08-30T05:31:26.723Z,102391.84
2022-08-30T05:33:56.122Z,102402.47
2022-08-30T05:36:29.146Z,102408.66
2022-08-30T05:38:57.843Z,102410.44
2022-08-30T05:41:27.409Z,102411.34
2022-08-30T05:43:57.817Z,102401.63
2022-08-30T05:46:29.736Z,102409.66
2022-08-30T05:48:58.661Z,102408.81
2022-08-30T05:51:29.270Z,102398.25
2022-08-30T05:53:58.722Z,102395.66
2022-08-30T05:56:36.730Z,102405.47
2022-08-30T05:59:07.117Z,102398.47
2022-08-30T06:01:44.524Z,102403.84
2022-08-30T06:04:14.565Z,102404.81
2022-08-30T06:06:44.241Z,102403.13
2022-08-30T06:09:14.827Z,102408.47
2022-08-30T06:11:44.540Z,102405.91
2022-08-30T06:14:14.531Z,102404.22
2022-08-30T06:16:46.062Z,102396.31
2022-08-30T06:19:15.887Z,102404.31
2022-08-30T06:21:48.720Z,102409.72
2022-08-30T06:24:17.896Z,102415.09
2022-08-30T06:26:50.398Z,102405.41
2022-08-30T06:29:20.906Z,102402.78
2022-08-30T06:31:50.173Z,102418.75
2022-08-30T06:34:19.108Z,102411.69
2022-08-30T06:36:47.750Z,102407.28
2022-08-30T06:39:16.710Z,102415.25
2022-08-30T06:41:45.138Z,102415.25
2022-08-30T06:44:25.359Z,102415.28
2022-08-30T06:46:53.779Z,102405.53
2022-08-30T06:49:22.231Z,102404.66
2022-08-30T06:51:51.484Z,102409.13
2022-08-30T06:54:19.952Z,102401.16
2022-08-30T06:56:58.165Z,102406.50
2022-08-30T06:59:27.394Z,102402.97
2022-08-30T07:01:58.032Z,102400.31
2022-08-30T07:04:26.355Z,102400.31
2022-08-30T07:06:58.830Z,102407.41
2022-08-30T07:09:27.254Z,102415.44
2022-08-30T07:11:56.158Z,102407.41
2022-08-30T07:14:24.491Z,102410.91
2022-08-30T07:16:52.930Z,102408.22
2022-08-30T07:19:22.851Z,102421.50
2022-08-30T07:21:51.274Z,102422.34
2022-08-30T07:24:20.742Z,102414.34
2022-08-30T07:26:51.924Z,102408.13
2022-08-30T07:29:21.811Z,102410.75
2022-08-30T07:31:50.521Z,102422.31
2022-08-30T07:34:23.361Z,102423.22
2022-08-30T07:36:54.252Z,102417.94
2022-08-30T07:39:22.653Z,102422.38
2022-08-30T07:41:51.112Z,102424.19
2022-08-30T07:44:19.554Z,102425.94
2022-08-30T07:46:52.117Z,102419.69
2022-08-30T07:49:20.734Z,102419.69
2022-08-30T07:51:49.164Z,102430.34
2022-08-30T07:54:17.622Z,102422.34
2022-08-30T07:56:48.658Z,102420.56
2022-08-30T07:59:17.887Z,102428.56
2022-08-30T08:01:46.259Z,102434.78
2022-08-30T08:04:14.823Z,102429.44
2022-08-30T08:06:45.682Z,102427.69
2022-08-30T08:09:14.025Z,102428.53
2022-08-30T08:11:42.510Z,102423.16
2022-08-30T08:14:11.601Z,102422.25
2022-08-30T08:16:42.610Z,102419.53
2022-08-30T08:19:12.360Z,102422.19
2022-08-30T08:21:42.124Z,102419.47
2022-08-30T08:24:10.529Z,102428.28
2022-08-30T08:26:40.993Z,102428.25
2022-08-30T08:29:13.865Z,102423.81
2022-08-30T08:31:42.818Z,102419.28
2022-08-30T08:34:11.773Z,102429.91
2022-08-30T08:36:40.865Z,102428.13
2022-08-30T08:39:10.034Z,102429.91
2022-08-30T08:42:13.825Z,102432.59
2022-08-30T08:44:46.083Z,102430.84
2022-08-30T08:47:22.030Z,102431.72
2022-08-30T08:49:56.305Z,102435.19
2022-08-30T08:52:55.688Z,102439.53
2022-08-30T08:55:24.801Z,102434.19
2022-08-30T08:57:53.289Z,102430.59
2022-08-30T09:00:22.067Z,102432.25
2022-08-30T09:02:58.829Z,102431.28
2022-08-30T09:05:38.192Z,102432.22
2022-08-30T09:08:11.715Z,102431.31
2022-08-30T09:10:51.158Z,102438.44
2022-08-30T09:13:22.723Z,102436.72
2022-08-30T09:15:55.091Z,102429.69
2022-08-30T09:18:51.278Z,102426.13
2022-08-30T09:21:27.818Z,102418.94
2022-08-30T09:23:59.484Z,102418.06
2022-08-30T09:26:31.291Z,102430.63
2022-08-30T09:29:02.538Z,102425.28
2022-08-30T09:32:10.061Z,102423.50
2022-08-30T09:34:43.630Z,102424.50
2022-08-30T09:37:26.720Z,102420.03
2022-08-30T09:39:55.550Z,102420.91
2022-08-30T09:42:26.811Z,102424.44
2022-08-30T09:45:12.971Z,102424.38
2022-08-30T09:47:43.800Z,102422.41
2022-08-30T09:50:19.302Z,102417.84
2022-08-30T09:53:24.628Z,102413.41
2022-08-30T09:55:55.813Z,102413.41
2022-08-30T09:58:41.463Z,102414.19
2022-08-30T10:01:24.189Z,102404.44
2022-08-30T10:04:08.476Z,102405.31
2022-08-30T10:06:44.520Z,102405.38
2022-08-30T10:09:22.396Z,102397.28
2022-08-30T10:12:04.940Z,102401.56
2022-08-30T10:15:21.741Z,102404.94
2022-08-30T10:18:00.157Z,102409.41
2022-08-30T10:21:19.037Z,102399.66
2022-08-30T10:23:54.253Z,102403.38
2022-08-30T10:26:38.991Z,102405.22
2022-08-30T10:29:19.983Z,102406.91
2022-08-30T10:31:58.402Z,102408.59
2022-08-30T10:34:36.141Z,102401.34
2022-08-30T10:37:09.712Z,102411.84
2022-08-30T10:39:46.309Z,102404.69
2022-08-30T10:42:36.704Z,102396.53
2022-08-30T10:45:14.160Z,102415.09
2022-08-30T10:47:53.832Z,102403.59
2022-08-30T10:50:41.032Z,102407.28
2022-08-30T10:53:15.821Z,102402.09
2022-08-30T10:56:14.256Z,102398.72
2022-08-30T10:58:43.368Z,102396.03
2022-08-30T11:01:24.578Z,102402.13
2022-08-30T11:04:21.619Z,102397.44
2022-08-30T11:06:56.610Z,102399.00
2022-08-30T11:09:49.116Z,102397.00
2022-08-30T11:12:29.483Z,102398.75
2022-08-30T11:14:58.254Z,102397.00
2022-08-30T11:17:44.246Z,102404.28
2022-08-30T11:20:34.497Z,102398.28
2022-08-30T11:23:18.923Z,102385.91
2022-08-30T11:25:57.523Z,102391.06
2022-08-30T11:28:37.048Z,102390.06
2022-08-30T11:31:09.264Z,102391.72
2022-08-30T11:33:49.312Z,102378.25
2022-08-30T11:36:37.246Z,102381.72
2022-08-30T11:39:11.416Z,102377.06
2022-08-30T11:42:08.162Z,102369.81
2022-08-30T11:44:37.171Z,102371.47
2022-08-30T11:47:47.723Z,102374.84
2022-08-30T11:50:22.480Z,102361.31
2022-08-30T11:53:00.255Z,102373.63
2022-08-30T11:55:45.141Z,102360.19
2022-08-30T11:58:45.032Z,102353.84
2022-08-30T12:01:49.656Z,102360.06
2022-08-30T12:04:56.265Z,102352.84
2022-08-30T12:08:04.172Z,102363.28
2022-08-30T12:10:40.926Z,102352.22
2022-08-30T12:13:30.506Z,102349.34
2022-08-30T12:16:03.357Z,102356.22
2022-08-30T12:18:57.589Z,102348.94
2022-08-30T12:21:35.336Z,102348.97
2022-08-30T12:24:13.886Z,102358.53
2022-08-30T12:26:44.530Z,102359.25
2022-08-30T12:29:31.313Z,102362.09
2022-08-30T12:31:59.756Z,102351.41
2022-08-30T12:34:37.185Z,102353.00
2022-08-30T12:37:20.672Z,102354.53
2022-08-30T12:40:02.093Z,102346.44
2022-08-30T12:42:33.724Z,102341.88
2022-08-30T12:45:07.934Z,102339.25
2022-08-30T12:48:02.813Z,102337.41
2022-08-30T12:50:49.026Z,102333.91
2022-08-30T12:53:27.363Z,102335.78
2022-08-30T12:56:01.216Z,102335.91
2022-08-30T12:58:46.306Z,102325.31
2022-08-30T13:01:32.971Z,102324.31
2022-08-30T13:04:19.804Z,102328.56
2022-08-30T13:06:55.336Z,102336.56
2022-08-30T13:09:32.631Z,102340.25
2022-08-30T13:12:05.772Z,102326.16
2022-08-30T13:14:46.557Z,102329.00
2022-08-30T13:17:28.319Z,102330.00
2022-08-30T13:20:05.904Z,102331.00
2022-08-30T13:22:37.081Z,102323.22
2022-08-30T13:25:07.905Z,102318.69
2022-08-30T13:27:40.589Z,102315.16
2022-08-30T13:30:14.579Z,102315.22
2022-08-30T13:32:43.993Z,102311.56
2022-08-30T13:35:13.410Z,102305.25
2022-08-30T13:37:49.810Z,102305.13
2022-08-30T13:40:26.555Z,102305.06
2022-08-30T13:42:55.194Z,102300.69
2022-08-30T13:48:24.923Z,102300.66
2022-08-30T13:50:55.497Z,102300.41
2022-08-30T13:56:14.041Z,102293.84
2022-08-30T13:58:48.339Z,102299.13
2022-08-30T14:01:23.374Z,102297.16
2022-08-30T14:09:35.270Z,102295.00
2022-08-30T14:12:06.945Z,102292.09
2022-08-30T14:14:42.583Z,102309.13
2022-08-30T14:17:12.484Z,102302.31
2022-08-30T14:19:44.594Z,102296.25
2022-08-30T14:22:13.657Z,102298.97
2022-08-30T14:24:45.699Z,102292.75
2022-08-30T14:27:17.414Z,102291.91
2022-08-30T14:29:46.935Z,102304.38
2022-08-30T14:32:15.466Z,102285.53
2022-08-30T14:34:44.939Z,102296.16
2022-08-30T14:37:14.202Z,102289.25
2022-08-30T14:39:42.735Z,102297.44
2022-08-30T14:42:12.613Z,102288.56
2022-08-30T14:44:56.193Z,102288.34
2022-08-30T14:47:29.393Z,102294.66
2022-08-30T14:50:01.529Z,102299.22
2022-08-30T14:52:32.175Z,102292.47
2022-08-30T14:55:08.941Z,102286.41
2022-08-30T14:57:38.569Z,102298.22
2022-08-30T15:00:10.400Z,102288.53
2022-08-30T15:02:39.128Z,102276.78
2022-08-30T15:05:26.884Z,102292.00
2022-08-30T15:08:00.922Z,102289.63
2022-08-30T15:10:54.714Z,102289.81
2022-08-30T15:13:23.371Z,102288.00
2022-08-30T15:15:51.837Z,102282.50
2022-08-30T15:18:25.802Z,102281.50
2022-08-30T15:20:54.345Z,102281.41
2022-08-30T15:23:22.954Z,102292.03
2022-08-30T15:25:54.342Z,102283.09
2022-08-30T15:28:22.657Z,102281.25
2022-08-30T15:30:51.903Z,102274.09
2022-08-30T15:33:20.357Z,102280.25
2022-08-30T15:35:49.629Z,102280.44
2022-08-30T15:38:19.356Z,102277.31
2022-08-30T15:40:50.963Z,102281.91
2022-08-30T15:43:20.739Z,102278.63
2022-08-30T15:45:50.581Z,102285.97
2022-08-30T15:48:18.969Z,102278.97
2022-08-30T15:50:47.485Z,102275.47
2022-08-30T15:53:18.629Z,102281.63
2022-08-30T15:55:47.611Z,102271.00
2022-08-30T15:58:19.270Z,102275.47
2022-08-30T16:00:47.804Z,102273.69
2022-08-30T16:03:18.321Z,102268.44
2022-08-30T16:05:48.612Z,102275.75
2022-08-30T16:08:19.383Z,102272.31
2022-08-30T16:10:51.947Z,102270.78
2022-08-30T16:13:20.687Z,102269.22
2022-08-30T16:15:49.101Z,102264.88
2022-08-30T16:18:17.524Z,102262.25
2022-08-30T16:20:49.489Z,102253.44
2022-08-30T16:23:19.355Z,102261.56
2022-08-30T16:25:48.274Z,102259.75
2022-08-30T16:28:16.879Z,102252.59
2022-08-30T16:30:47.130Z,102256.16
2022-08-30T16:33:19.965Z,102255.28
2022-08-30T16:35:55.696Z,102256.22
2022-08-30T16:38:26.552Z,102262.59
2022-08-30T16:40:56.562Z,102258.22
2022-08-30T16:43:25.012Z,102247.59
2022-08-30T16:45:53.861Z,102253.84
2022-08-30T16:48:22.186Z,102250.31
2022-08-30T16:50:50.502Z,102252.19
2022-08-30T16:53:21.076Z,102244.22
2022-08-30T16:55:49.362Z,102247.84
2022-08-30T16:58:20.090Z,102255.00
2022-08-30T17:00:51.755Z,102255.03
2022-08-30T17:03:21.139Z,102246.16
2022-08-30T17:05:50.089Z,102255.09
2022-08-30T17:08:20.085Z,102247.13
2022-08-30T17:10:50.378Z,102250.75
2022-08-30T17:13:19.313Z,102247.25
2022-08-30T17:15:48.315Z,102256.16
2022-08-30T17:18:18.206Z,102251.72
2022-08-30T17:20:46.894Z,102257.09
2022-08-30T17:23:15.718Z,102254.41
2022-08-30T17:25:44.020Z,102260.72
2022-08-30T17:28:12.505Z,102256.31
2022-08-30T17:30:41.160Z,102258.16
2022-08-30T17:33:15.209Z,102263.53
2022-08-30T17:35:46.513Z,102260.91
2022-08-30T17:38:15.052Z,102258.28
2022-08-30T17:40:44.372Z,102269.00
2022-08-30T17:43:12.989Z,102275.25
2022-08-30T17:45:41.845Z,102269.91
2022-08-30T17:48:10.533Z,102273.44
2022-08-30T17:50:38.895Z,102270.81
2022-08-30T17:53:07.239Z,102277.16
2022-08-30T17:55:35.562Z,102279.91
2022-08-30T17:58:03.835Z,102288.88
2022-08-30T18:00:32.660Z,102289.84
2022-08-30T18:03:01.371Z,102294.34
2022-08-30T18:05:30.738Z,102293.53
2022-08-30T18:08:02.852Z,102294.50
2022-08-30T18:10:33.964Z,102299.88
2022-08-30T18:13:03.253Z,102305.28
2022-08-30T18:15:31.626Z,102301.81
2022-08-30T18:18:00.196Z,102314.31
2022-08-30T18:20:28.760Z,102316.13
2022-08-30T18:23:00.254Z,102306.38
2022-08-30T18:25:28.832Z,102319.78
2022-08-30T18:27:58.881Z,102324.25
2022-08-30T18:30:33.996Z,102334.94
2022-08-30T18:33:06.776Z,102337.66
2022-08-30T18:35:36.402Z,102333.22
2022-08-30T18:38:05.539Z,102332.34
2022-08-30T18:40:43.688Z,102334.16
2022-08-30T18:43:14.576Z,102341.31
2022-08-30T18:45:56.589Z,102345.78
2022-08-30T18:48:37.316Z,102338.69
2022-08-30T18:51:11.808Z,102342.28
2022-08-30T18:53:41.206Z,102345.84
2022-08-30T18:56:10.742Z,102352.09
2022-08-30T18:58:44.620Z,102355.69
2022-08-30T19:01:15.706Z,102350.34
2022-08-30T19:03:46.818Z,102359.25
2022-08-30T19:06:15.626Z,102353.06
2022-08-30T19:08:46.382Z,102360.19
2022-08-30T19:11:18.074Z,102359.28
2022-08-30T19:13:48.103Z,102352.22
2022-08-30T19:16:16.632Z,102361.13
2022-08-30T19:18:46.018Z,102357.56
2022-08-30T19:21:18.431Z,102359.38
2022-08-30T19:23:53.069Z,102365.59
2022-08-30T19:26:23.623Z,102370.94
2022-08-30T19:28:55.914Z,102370.94
2022-08-30T19:31:24.188Z,102374.50
2022-08-30T19:33:52.556Z,102375.38
2022-08-30T19:36:20.997Z,102368.25
2022-08-30T19:38:49.457Z,102375.38
2022-08-30T19:41:17.944Z,102372.72
2022-08-30T19:43:46.391Z,102382.50
2022-08-30T19:46:15.289Z,102381.59
2022-08-30T19:48:45.142Z,102391.41
2022-08-30T19:51:15.798Z,102393.16
2022-08-30T19:53:44.690Z,102397.63
2022-08-30T19:56:13.268Z,102394.06
2022-08-30T19:58:41.891Z,102394.06
2022-08-30T20:01:13.193Z,102397.59
2022-08-30T20:03:57.340Z,102387.81
2022-08-30T20:06:25.672Z,102395.81
2022-08-30T20:08:56.651Z,102393.19
2022-08-30T20:11:26.511Z,102394.06
2022-08-30T20:13:55.796Z,102393.19
2022-08-30T20:16:36.107Z,102394.97
2022-08-30T20:19:08.360Z,102397.63
2022-08-30T20:21:36.961Z,102400.28
2022-08-30T20:26:54.393Z,102400.31
2022-08-30T20:29:23.266Z,102398.53
2022-08-30T20:31:51.651Z,102409.19
2022-08-30T20:34:27.172Z,102402.97
2022-08-30T20:36:57.597Z,102395.84
2022-08-30T20:39:26.077Z,102413.63
2022-08-30T20:41:54.417Z,102405.63
2022-08-30T20:44:23.056Z,102402.06
2022-08-30T20:46:51.725Z,102402.97
2022-08-30T20:49:20.560Z,102400.31
2022-08-30T20:51:52.948Z,102398.53
2022-08-30T20:54:23.132Z,102407.41
2022-08-30T20:56:51.576Z,102402.97
2022-08-30T20:59:20.920Z,102399.41
2022-08-30T21:01:49.889Z,102403.88
2022-08-30T21:04:19.123Z,102407.41
2022-08-30T21:06:47.677Z,102409.19
2022-08-30T21:09:16.279Z,102407.44
2022-08-30T21:11:45.405Z,102406.53
2022-08-30T21:14:13.805Z,102410.97
2022-08-30T21:16:42.350Z,102415.41
2022-08-30T21:19:11.956Z,102410.97
2022-08-30T21:21:40.445Z,102410.06
2022-08-30T21:24:10.227Z,102411.84
2022-08-30T21:26:43.544Z,102418.97
2022-08-30T21:29:12.026Z,102423.41
2022-08-30T21:31:40.464Z,102430.53
2022-08-30T21:34:08.818Z,102428.75
2022-08-30T21:36:47.747Z,102432.28
2022-08-30T21:39:28.284Z,102435.84
2022-08-30T21:41:59.565Z,102431.38
2022-08-30T21:44:28.108Z,102435.84
2022-08-30T21:46:59.341Z,102433.16
2022-08-30T21:49:27.740Z,102438.50
2022-08-30T21:51:56.563Z,102444.72
2022-08-30T21:54:31.295Z,102442.97
2022-08-30T21:57:02.001Z,102448.28
2022-08-30T21:59:31.104Z,102448.25
2022-08-30T22:01:59.482Z,102447.38
2022-08-30T22:04:30.339Z,102450.94
2022-08-30T22:06:59.384Z,102452.72
2022-08-30T22:09:27.738Z,102460.69
2022-08-30T22:11:56.106Z,102462.47
2022-08-30T22:14:27.845Z,102460.69
2022-08-30T22:16:56.366Z,102462.44
2022-08-30T22:19:25.336Z,102460.66
2022-08-30T22:22:00.856Z,102467.75
2022-08-30T22:24:31.857Z,102465.13
2022-08-30T22:27:03.107Z,102467.75
2022-08-30T22:29:31.467Z,102467.72
2022-08-30T22:32:00.183Z,102465.97
2022-08-30T22:34:28.806Z,102464.19
2022-08-30T22:36:57.262Z,102472.16
2022-08-30T22:39:26.692Z,102480.16
2022-08-30T22:41:55.306Z,102475.69
2022-08-30T22:44:23.779Z,102468.53
2022-08-30T22:46:52.167Z,102480.97
2022-08-30T22:49:20.758Z,102488.94
2022-08-30T22:51:49.271Z,102488.91
2022-08-30T22:54:17.665Z,102500.44
2022-08-30T22:56:46.352Z,102488.88
2022-08-30T22:59:15.315Z,102491.56
2022-08-30T23:01:43.901Z,102498.63
2022-08-30T23:04:12.856Z,102488.84
2022-08-30T23:06:41.849Z,102495.03
2022-08-30T23:09:18.977Z,102491.47
2022-08-30T23:11:47.463Z,102484.34
2022-08-30T23:14:15.736Z,102493.19
2022-08-30T23:16:44.269Z,102490.53
2022-08-30T23:19:12.807Z,102494.94
2022-08-30T23:21:41.852Z,102494.88
2022-08-30T23:24:28.869Z,102493.13
2022-08-30T23:27:15.742Z,102494.88
2022-08-30T23:30:02.827Z,102493.97
2022-08-30T23:32:49.938Z,102500.16
2022-08-30T23:35:37.160Z,102497.47
2022-08-30T23:38:24.534Z,102484.22
2022-08-30T23:41:11.587Z,102492.16
2022-08-30T23:43:58.563Z,102498.34
2022-08-30T23:46:46.737Z,102497.44
2022-08-30T23:49:33.901Z,102491.19
2022-08-30T23:52:21.182Z,102486.75
2022-08-30T23:55:08.259Z,102492.91
2022-08-30T23:57:55.290Z,102492.00
